createdAt,value
2019-01-26T00:01:04.700Z,78.09
2019-01-26T00:03:33.428Z,78.24
2019-01-26T00:06:02.039Z,78.31
2019-01-26T00:08:30.668Z,77.84
2019-01-26T00:10:59.338Z,78.24
2019-01-26T00:13:27.924Z,78.26
2019-01-26T00:15:56.553Z,78.12
2019-01-26T00:18:25.213Z,78.15
2019-01-26T00:20:59.768Z,78.24
2019-01-26T00:23:28.333Z,78.43
2019-01-26T00:25:56.947Z,78.52
2019-01-26T00:28:25.592Z,78.48
2019-01-26T00:30:54.212Z,78.52
2019-01-26T00:33:22.864Z,78.29
2019-01-26T00:35:51.562Z,78.30
2019-01-26T00:38:20.204Z,78.23
2019-01-26T00:40:48.828Z,78.16
2019-01-26T00:43:17.402Z,78.21
2019-01-26T00:45:46.014Z,78.26
2019-01-26T00:48:14.566Z,78.18
2019-01-26T00:50:43.208Z,78.38
2019-01-26T00:53:11.827Z,78.43
2019-01-26T00:55:40.485Z,78.42
2019-01-26T00:58:09.077Z,78.52
2019-01-26T01:00:38.115Z,78.38
2019-01-26T01:03:06.963Z,78.00
2019-01-26T01:05:35.842Z,77.83
2019-01-26T01:08:04.682Z,77.44
2019-01-26T01:10:33.447Z,77.26
2019-01-26T01:13:02.618Z,77.19
2019-01-26T01:15:31.563Z,76.62
2019-01-26T01:18:00.270Z,76.31
2019-01-26T01:20:29.215Z,76.77
2019-01-26T01:22:58.092Z,77.09
2019-01-26T01:25:26.899Z,77.05
2019-01-26T01:27:55.468Z,76.35
2019-01-26T01:30:24.165Z,76.35
2019-01-26T01:32:52.787Z,76.42
2019-01-26T01:35:21.404Z,76.15
2019-01-26T01:37:50.046Z,75.94
2019-01-26T01:40:18.664Z,75.83
2019-01-26T01:42:47.250Z,75.60
2019-01-26T01:45:17.533Z,75.71
2019-01-26T01:47:46.179Z,75.54
2019-01-26T01:50:15.589Z,75.56
2019-01-26T01:52:44.290Z,75.03
2019-01-26T01:55:12.995Z,75.44
2019-01-26T01:57:41.625Z,75.35
2019-01-26T02:00:13.700Z,74.93
2019-01-26T02:02:42.280Z,74.96
2019-01-26T02:05:10.896Z,75.34
2019-01-26T02:07:39.488Z,75.03
2019-01-26T02:10:09.506Z,75.22
2019-01-26T02:12:38.122Z,75.31
2019-01-26T02:15:07.365Z,75.07
2019-01-26T02:17:36.029Z,75.17
2019-01-26T02:20:06.047Z,74.81
2019-01-26T02:22:34.676Z,75.24
2019-01-26T02:25:03.282Z,75.77
2019-01-26T02:27:31.869Z,76.00
2019-01-26T02:30:00.466Z,75.85
2019-01-26T02:32:29.034Z,75.67
2019-01-26T02:34:57.708Z,74.95
2019-01-26T02:37:26.300Z,75.05
2019-01-26T02:39:54.913Z,74.98
2019-01-26T02:42:23.469Z,74.67
2019-01-26T02:44:52.064Z,74.51
2019-01-26T02:47:20.724Z,74.45
2019-01-26T02:49:49.422Z,75.00
2019-01-26T02:52:18.032Z,74.56
2019-01-26T02:54:46.647Z,74.29
2019-01-26T02:57:15.230Z,74.66
2019-01-26T02:59:43.827Z,74.85
2019-01-26T03:02:12.433Z,74.34
2019-01-26T03:04:41.029Z,74.47
2019-01-26T03:07:10.819Z,74.24
2019-01-26T03:09:39.390Z,74.47
2019-01-26T03:12:08.027Z,74.55
2019-01-26T03:14:36.622Z,74.30
2019-01-26T03:17:06.540Z,74.58
2019-01-26T03:19:35.192Z,74.48
2019-01-26T03:22:03.775Z,74.44
2019-01-26T03:24:32.388Z,74.58
2019-01-26T03:27:01.016Z,74.59
2019-01-26T03:29:29.686Z,74.90
2019-01-26T03:31:58.338Z,75.05
2019-01-26T03:34:26.977Z,75.22
2019-01-26T03:36:55.560Z,74.96
2019-01-26T03:39:24.163Z,74.96
2019-01-26T03:41:52.706Z,74.83
2019-01-26T03:44:21.324Z,74.71
2019-01-26T03:46:49.908Z,74.62
2019-01-26T03:49:18.551Z,74.76
2019-01-26T03:51:47.270Z,74.51
2019-01-26T03:54:15.878Z,74.51
2019-01-26T03:56:44.437Z,74.46
2019-01-26T03:59:13.032Z,74.46
2019-01-26T04:01:41.644Z,74.35
2019-01-26T04:04:10.224Z,74.29
2019-01-26T04:06:38.842Z,74.29
2019-01-26T04:09:09.335Z,74.27
2019-01-26T04:11:37.895Z,74.03
2019-01-26T04:14:06.707Z,74.09
2019-01-26T04:16:35.348Z,74.21
2019-01-26T04:19:03.948Z,73.99
2019-01-26T04:21:32.551Z,74.11
2019-01-26T04:24:01.147Z,74.09
2019-01-26T04:26:29.780Z,73.93
2019-01-26T04:28:58.380Z,74.20
2019-01-26T04:31:26.958Z,74.01
2019-01-26T04:33:55.609Z,74.10
2019-01-26T04:36:24.262Z,74.07
2019-01-26T04:38:52.990Z,74.24
2019-01-26T04:41:21.552Z,74.26
2019-01-26T04:43:50.160Z,74.37
2019-01-26T04:46:18.768Z,74.44
2019-01-26T04:48:47.414Z,74.50
2019-01-26T04:51:16.014Z,74.43
2019-01-26T04:53:44.637Z,74.49
2019-01-26T04:56:13.265Z,74.47
2019-01-26T04:58:41.850Z,74.17
2019-01-26T05:01:10.408Z,74.17
2019-01-26T05:03:39.053Z,74.46
2019-01-26T05:06:07.654Z,74.43
2019-01-26T05:08:36.318Z,74.47
2019-01-26T05:11:04.893Z,74.32
2019-01-26T05:13:33.513Z,74.29
2019-01-26T05:16:02.131Z,74.31
2019-01-26T05:18:31.713Z,74.13
2019-01-26T05:21:00.355Z,74.22
2019-01-26T05:23:28.940Z,74.16
2019-01-26T05:25:57.525Z,74.30
2019-01-26T05:28:26.859Z,74.30
2019-01-26T05:30:55.511Z,74.22
2019-01-26T05:33:24.265Z,74.57
2019-01-26T05:35:52.911Z,74.50
2019-01-26T05:38:21.595Z,74.54
2019-01-26T05:40:50.193Z,74.23
2019-01-26T05:43:18.772Z,74.36
2019-01-26T05:45:47.432Z,74.50
2019-01-26T05:48:16.025Z,74.53
2019-01-26T05:50:44.623Z,74.81
2019-01-26T05:53:13.208Z,74.79
2019-01-26T05:55:41.838Z,74.81
2019-01-26T05:58:10.391Z,74.29
2019-01-26T06:00:39.012Z,75.13
2019-01-26T06:03:07.756Z,75.13
2019-01-26T06:05:38.042Z,74.97
2019-01-26T06:08:06.606Z,74.58
2019-01-26T06:10:35.224Z,74.92
2019-01-26T06:13:03.824Z,75.19
2019-01-26T06:15:32.465Z,75.59
2019-01-26T06:18:01.070Z,75.65
2019-01-26T06:20:29.747Z,75.77
2019-01-26T06:22:58.352Z,75.83
2019-01-26T06:25:27.040Z,75.89
2019-01-26T06:27:55.630Z,75.95
2019-01-26T06:30:25.689Z,75.82
2019-01-26T06:32:54.307Z,75.88
2019-01-26T06:35:22.953Z,75.91
2019-01-26T06:37:51.557Z,76.05
2019-01-26T06:40:21.007Z,76.10
2019-01-26T06:42:49.710Z,76.11
2019-01-26T06:45:19.429Z,76.17
2019-01-26T06:47:48.121Z,76.19
2019-01-26T06:50:21.418Z,76.19
2019-01-26T06:52:50.055Z,76.20
2019-01-26T06:55:18.667Z,76.15
2019-01-26T06:57:47.377Z,76.15
2019-01-26T07:00:18.958Z,76.03
2019-01-26T07:02:47.538Z,75.97
2019-01-26T07:05:27.680Z,75.98
2019-01-26T07:07:56.337Z,75.95
2019-01-26T07:10:24.959Z,76.07
2019-01-26T07:12:53.599Z,76.05
2019-01-26T07:15:22.248Z,75.79
2019-01-26T07:17:50.950Z,75.65
2019-01-26T07:20:19.564Z,75.78
2019-01-26T07:22:48.186Z,75.94
2019-01-26T07:25:16.838Z,75.91
2019-01-26T07:27:45.509Z,75.91
2019-01-26T07:30:16.853Z,75.14
2019-01-26T07:32:45.520Z,75.40
2019-01-26T07:35:14.116Z,75.40
2019-01-26T07:37:42.731Z,75.51
2019-01-26T07:40:14.436Z,75.30
2019-01-26T07:42:43.195Z,75.01
2019-01-26T07:45:11.991Z,75.02
2019-01-26T07:47:40.619Z,74.71
2019-01-26T07:50:11.480Z,74.97
2019-01-26T07:52:40.056Z,75.00
2019-01-26T07:55:09.905Z,74.99
2019-01-26T07:57:38.511Z,75.11
2019-01-26T08:00:10.177Z,74.91
2019-01-26T08:02:38.797Z,74.96
2019-01-26T08:05:08.981Z,75.00
2019-01-26T08:07:37.660Z,74.94
2019-01-26T08:10:09.459Z,74.80
2019-01-26T08:12:38.096Z,74.89
2019-01-26T08:15:08.695Z,74.88
2019-01-26T08:17:37.260Z,74.93
2019-01-26T08:20:11.106Z,74.79
2019-01-26T08:22:39.759Z,74.90
2019-01-26T08:25:08.691Z,74.81
2019-01-26T08:27:37.257Z,74.71
2019-01-26T08:30:07.538Z,74.69
2019-01-26T08:32:36.129Z,74.49
2019-01-26T08:35:04.719Z,74.28
2019-01-26T08:37:33.360Z,74.33
2019-01-26T08:40:01.988Z,74.15
2019-01-26T08:42:30.613Z,73.87
2019-01-26T08:44:59.279Z,73.76
2019-01-26T08:47:27.831Z,73.81
2019-01-26T08:49:56.440Z,73.66
2019-01-26T08:52:25.063Z,73.70
2019-01-26T08:54:53.701Z,73.53
2019-01-26T08:57:22.395Z,73.35
2019-01-26T08:59:51.051Z,73.25
2019-01-26T09:02:48.785Z,73.11
2019-01-26T09:05:17.993Z,73.01
2019-01-26T09:07:46.596Z,72.75
2019-01-26T09:10:15.174Z,72.61
2019-01-26T09:12:43.780Z,72.65
2019-01-26T09:15:12.430Z,72.46
2019-01-26T09:17:41.175Z,72.19
2019-01-26T09:20:11.767Z,72.33
2019-01-26T09:22:40.392Z,72.33
2019-01-26T09:25:09.101Z,72.28
2019-01-26T09:27:38.293Z,72.25
2019-01-26T09:30:07.429Z,72.19
2019-01-26T09:32:36.031Z,71.79
2019-01-26T09:35:04.859Z,71.77
2019-01-26T09:37:33.495Z,71.76
2019-01-26T09:40:02.073Z,71.65
2019-01-26T09:42:30.666Z,71.78
2019-01-26T09:45:00.476Z,71.59
2019-01-26T09:47:29.179Z,71.53
2019-01-26T09:49:57.867Z,71.49
2019-01-26T09:52:26.463Z,71.70
2019-01-26T09:54:55.080Z,71.45
2019-01-26T09:57:23.675Z,71.52
2019-01-26T09:59:52.280Z,71.60
2019-01-26T10:02:20.884Z,71.55
2019-01-26T10:04:49.493Z,71.69
2019-01-26T10:07:18.154Z,71.85
2019-01-26T10:09:46.766Z,71.83
2019-01-26T10:12:15.375Z,71.79
2019-01-26T10:14:44.012Z,71.79
2019-01-26T10:17:12.698Z,71.62
2019-01-26T10:19:41.448Z,71.79
2019-01-26T10:22:10.219Z,71.95
2019-01-26T10:24:38.827Z,71.77
2019-01-26T10:27:07.540Z,71.85
2019-01-26T10:29:36.225Z,71.86
2019-01-26T10:32:05.243Z,71.92
2019-01-26T10:34:33.833Z,71.91
2019-01-26T10:37:06.423Z,71.77
2019-01-26T10:39:35.187Z,71.55
2019-01-26T10:42:34.969Z,71.51
2019-01-26T10:45:04.065Z,71.33
2019-01-26T10:47:33.025Z,71.49
2019-01-26T10:50:01.656Z,71.44
2019-01-26T10:52:30.265Z,71.33
2019-01-26T10:54:58.904Z,71.34
2019-01-26T10:57:27.615Z,71.27
2019-01-26T10:59:56.277Z,71.14
2019-01-26T11:02:24.899Z,70.94
2019-01-26T11:04:53.546Z,71.21
2019-01-26T11:07:23.432Z,70.95
2019-01-26T11:09:52.167Z,71.00
2019-01-26T11:12:20.756Z,71.05
2019-01-26T11:14:49.474Z,70.82
2019-01-26T11:17:18.214Z,70.53
2019-01-26T11:19:47.035Z,69.69
2019-01-26T11:22:15.637Z,69.58
2019-01-26T11:24:44.305Z,69.62
2019-01-26T11:27:13.013Z,69.66
2019-01-26T11:29:41.677Z,69.63
2019-01-26T11:32:10.329Z,68.99
2019-01-26T11:34:38.907Z,68.58
2019-01-26T11:37:07.523Z,68.36
2019-01-26T11:39:36.173Z,67.64
2019-01-26T11:42:04.809Z,68.08
2019-01-26T11:44:33.412Z,67.57
2019-01-26T11:47:05.284Z,67.07
2019-01-26T11:49:33.910Z,67.18
2019-01-26T11:52:10.765Z,67.04
2019-01-26T11:54:52.338Z,67.18
2019-01-26T11:57:23.056Z,67.74
2019-01-26T12:00:25.930Z,67.20
2019-01-26T12:03:08.955Z,67.47
2019-01-26T12:05:52.611Z,67.65
2019-01-26T12:08:21.344Z,67.34
2019-01-26T12:10:49.956Z,67.34
2019-01-26T12:13:18.681Z,67.61
2019-01-26T12:15:47.236Z,67.37
2019-01-26T12:18:15.887Z,67.44
2019-01-26T12:20:44.498Z,67.44
2019-01-26T12:23:13.079Z,67.67
2019-01-26T12:25:41.741Z,67.31
2019-01-26T12:28:10.356Z,66.75
2019-01-26T12:30:38.949Z,65.53
2019-01-26T12:33:07.619Z,65.53
2019-01-26T12:35:36.235Z,65.13
2019-01-26T12:38:04.865Z,65.22
2019-01-26T12:40:33.625Z,65.51
2019-01-26T12:43:02.293Z,65.96
2019-01-26T12:45:30.962Z,66.27
2019-01-26T12:47:59.739Z,66.75
2019-01-26T12:50:28.368Z,66.94
2019-01-26T12:52:57.126Z,67.19
2019-01-26T12:55:25.752Z,67.41
2019-01-26T12:57:54.448Z,67.48
2019-01-26T13:00:23.183Z,67.30
2019-01-26T13:02:53.082Z,66.92
2019-01-26T13:05:21.794Z,66.92
2019-01-26T13:07:50.764Z,66.91
2019-01-26T13:10:23.055Z,66.59
2019-01-26T13:12:52.475Z,66.45
2019-01-26T13:15:21.047Z,66.47
2019-01-26T13:17:49.625Z,66.28
2019-01-26T13:20:18.714Z,66.82
2019-01-26T13:22:47.441Z,66.79
2019-01-26T13:25:16.724Z,66.81
2019-01-26T13:27:47.708Z,66.74
2019-01-26T13:30:17.519Z,66.65
2019-01-26T13:32:46.659Z,66.66
2019-01-26T13:35:15.478Z,66.68
2019-01-26T13:37:44.051Z,66.71
2019-01-26T13:40:15.196Z,66.35
2019-01-26T13:42:43.806Z,66.65
2019-01-26T13:45:13.563Z,66.38
2019-01-26T13:47:42.186Z,66.32
2019-01-26T13:50:11.062Z,66.33
2019-01-26T13:52:39.703Z,65.77
2019-01-26T13:55:10.919Z,66.18
2019-01-26T13:57:39.504Z,66.35
2019-01-26T14:00:14.311Z,67.25
2019-01-26T14:02:43.021Z,67.20
2019-01-26T14:05:11.726Z,67.12
2019-01-26T14:07:40.456Z,67.68
2019-01-26T14:10:10.839Z,67.68
2019-01-26T14:12:39.537Z,67.79
2019-01-26T14:15:08.480Z,67.88
2019-01-26T14:17:37.067Z,67.94
2019-01-26T14:20:07.775Z,68.23
2019-01-26T14:22:36.398Z,68.18
2019-01-26T14:25:06.619Z,68.36
2019-01-26T14:27:35.212Z,68.61
2019-01-26T14:30:05.177Z,69.07
2019-01-26T14:32:33.876Z,69.74
2019-01-26T14:35:02.511Z,69.92
2019-01-26T14:37:31.209Z,70.09
2019-01-26T14:39:59.864Z,70.18
2019-01-26T14:42:28.492Z,70.28
2019-01-26T14:44:57.133Z,70.45
2019-01-26T14:47:25.769Z,70.72
2019-01-26T14:49:58.440Z,70.99
2019-01-26T14:52:24.674Z,70.97
2019-01-26T14:54:53.348Z,70.75
2019-01-26T14:57:21.978Z,70.58
2019-01-26T14:59:50.613Z,70.36
2019-01-26T15:02:19.194Z,70.53
2019-01-26T15:04:48.213Z,70.45
2019-01-26T15:07:16.805Z,70.58
2019-01-26T15:09:45.488Z,70.74
2019-01-26T15:12:14.112Z,70.94
2019-01-26T15:14:42.763Z,71.26
2019-01-26T15:17:11.427Z,71.16
2019-01-26T15:19:40.120Z,71.18
2019-01-26T15:22:08.683Z,71.32
2019-01-26T15:24:37.288Z,71.54
2019-01-26T15:27:05.953Z,71.62
2019-01-26T15:29:34.608Z,71.42
2019-01-26T15:32:03.369Z,71.49
2019-01-26T15:34:32.106Z,71.73
2019-01-26T15:37:00.736Z,72.03
2019-01-26T15:39:29.334Z,72.31
2019-01-26T15:41:57.940Z,73.32
2019-01-26T15:44:26.552Z,73.74
2019-01-26T15:46:55.245Z,73.54
2019-01-26T15:49:23.893Z,74.43
2019-01-26T15:51:52.504Z,75.31
2019-01-26T15:54:21.124Z,75.95
2019-01-26T15:56:49.771Z,76.13
2019-01-26T15:59:18.368Z,76.85
2019-01-26T16:01:47.025Z,77.23
2019-01-26T16:04:15.602Z,77.27
2019-01-26T16:06:44.238Z,77.49
2019-01-26T16:09:12.873Z,77.79
2019-01-26T16:11:41.571Z,78.17
2019-01-26T16:14:10.296Z,77.82
2019-01-26T16:16:38.944Z,77.63
2019-01-26T16:19:07.543Z,77.30
2019-01-26T16:21:36.208Z,76.94
2019-01-26T16:24:04.946Z,76.79
2019-01-26T16:26:33.660Z,76.79
2019-01-26T16:29:02.250Z,76.12
2019-01-26T16:31:30.934Z,76.59
2019-01-26T16:33:59.568Z,76.53
2019-01-26T16:36:28.241Z,76.51
2019-01-26T16:38:56.856Z,76.12
2019-01-26T16:41:25.516Z,76.17
2019-01-26T16:43:54.150Z,76.22
2019-01-26T16:46:22.835Z,76.10
2019-01-26T16:48:51.521Z,75.97
2019-01-26T16:51:20.254Z,75.84
2019-01-26T16:53:48.946Z,75.84
2019-01-26T16:56:17.550Z,75.84
2019-01-26T16:58:46.133Z,75.50
2019-01-26T17:01:14.757Z,75.80
2019-01-26T17:03:43.327Z,75.80
2019-01-26T17:06:12.254Z,76.02
2019-01-26T17:08:40.847Z,76.41
2019-01-26T17:11:09.529Z,76.39
2019-01-26T17:13:38.248Z,76.62
2019-01-26T17:16:06.907Z,76.64
2019-01-26T17:18:35.490Z,76.76
2019-01-26T17:21:04.117Z,76.34
2019-01-26T17:23:32.728Z,76.33
2019-01-26T17:26:01.317Z,76.62
2019-01-26T17:28:32.059Z,76.59
2019-01-26T17:31:00.739Z,76.58
2019-01-26T17:33:29.494Z,76.55
2019-01-26T17:35:58.110Z,76.34
2019-01-26T17:38:26.716Z,76.63
2019-01-26T17:40:55.416Z,76.34
2019-01-26T17:43:24.069Z,76.27
2019-01-26T17:45:52.736Z,75.72
2019-01-26T17:48:21.430Z,75.42
2019-01-26T17:50:50.541Z,75.56
2019-01-26T17:53:19.265Z,75.81
2019-01-26T17:55:47.900Z,75.46
2019-01-26T17:58:16.480Z,75.42
2019-01-26T18:00:51.825Z,75.72
2019-01-26T18:03:20.770Z,75.67
2019-01-26T18:05:49.372Z,75.99
2019-01-26T18:08:17.971Z,75.60
2019-01-26T18:10:46.601Z,75.81
2019-01-26T18:13:15.361Z,75.99
2019-01-26T18:15:44.052Z,75.99
2019-01-26T18:18:12.714Z,76.37
2019-01-26T18:20:41.256Z,76.37
2019-01-26T18:23:10.187Z,76.51
2019-01-26T18:25:40.621Z,76.08
2019-01-26T18:28:09.270Z,76.31
2019-01-26T18:30:39.429Z,76.93
2019-01-26T18:33:08.019Z,77.22
2019-01-26T18:35:36.680Z,77.37
2019-01-26T18:38:06.781Z,77.80
2019-01-26T18:40:35.353Z,77.84
2019-01-26T18:43:04.371Z,77.92
2019-01-26T18:45:33.065Z,77.31
2019-01-26T18:48:01.655Z,77.06
2019-01-26T18:50:32.223Z,77.29
2019-01-26T18:53:01.004Z,77.23
2019-01-26T18:55:29.550Z,76.75
2019-01-26T18:57:58.544Z,76.59
2019-01-26T19:00:34.200Z,76.64
2019-01-26T19:03:13.408Z,76.05
2019-01-26T19:05:42.000Z,76.00
2019-01-26T19:08:10.615Z,75.85
2019-01-26T19:10:39.179Z,75.99
2019-01-26T19:13:07.841Z,75.71
2019-01-26T19:15:36.435Z,75.87
2019-01-26T19:18:05.121Z,75.68
2019-01-26T19:20:33.808Z,75.86
2019-01-26T19:23:02.484Z,75.22
2019-01-26T19:25:31.180Z,75.32
2019-01-26T19:27:59.784Z,75.24
2019-01-26T19:30:28.446Z,75.06
2019-01-26T19:32:57.222Z,74.90
2019-01-26T19:35:25.753Z,74.88
2019-01-26T19:37:54.356Z,74.63
2019-01-26T19:40:22.996Z,74.21
2019-01-26T19:42:51.637Z,73.89
2019-01-26T19:45:20.585Z,74.12
2019-01-26T19:47:49.144Z,74.04
2019-01-26T19:50:19.668Z,73.76
2019-01-26T19:52:48.519Z,74.01
2019-01-26T19:55:18.219Z,73.88
2019-01-26T19:57:46.839Z,73.55
2019-01-26T20:00:15.796Z,73.61
2019-01-26T20:02:44.646Z,73.80
2019-01-26T20:05:15.597Z,73.43
2019-01-26T20:07:44.286Z,73.86
2019-01-26T20:10:13.203Z,73.82
2019-01-26T20:12:41.865Z,73.65
2019-01-26T20:15:13.453Z,73.34
2019-01-26T20:17:42.217Z,73.47
2019-01-26T20:20:13.881Z,73.43
2019-01-26T20:22:42.478Z,73.52
2019-01-26T20:25:11.157Z,73.23
2019-01-26T20:27:39.779Z,73.12
2019-01-26T20:30:12.097Z,73.00
2019-01-26T20:32:40.748Z,72.72
2019-01-26T20:35:09.364Z,72.54
2019-01-26T20:37:38.250Z,72.86
2019-01-26T20:40:08.276Z,73.21
2019-01-26T20:42:36.879Z,73.22
2019-01-26T20:45:08.005Z,73.11
2019-01-26T20:47:36.591Z,73.05
2019-01-26T20:50:06.055Z,73.31
2019-01-26T20:52:34.708Z,73.33
2019-01-26T20:55:03.456Z,73.59
2019-01-26T20:57:32.021Z,73.52
2019-01-26T21:00:00.728Z,73.75
2019-01-26T21:02:29.373Z,73.90
2019-01-26T21:04:58.027Z,73.82
2019-01-26T21:07:26.647Z,73.77
2019-01-26T21:09:55.291Z,73.49
2019-01-26T21:12:23.873Z,73.44
2019-01-26T21:14:52.611Z,73.36
2019-01-26T21:17:21.198Z,73.72
2019-01-26T21:19:49.827Z,74.19
2019-01-26T21:22:18.438Z,74.79
2019-01-26T21:24:47.108Z,75.55
2019-01-26T21:27:15.704Z,75.58
2019-01-26T21:29:44.460Z,75.46
2019-01-26T21:32:13.107Z,76.04
2019-01-26T21:34:41.790Z,75.42
2019-01-26T21:37:10.387Z,75.78
2019-01-26T21:39:39.036Z,75.27
2019-01-26T21:42:07.715Z,75.58
2019-01-26T21:44:36.330Z,75.53
2019-01-26T21:47:04.992Z,75.54
2019-01-26T21:49:33.659Z,75.85
2019-01-26T21:52:02.564Z,76.16
2019-01-26T21:54:31.173Z,75.68
2019-01-26T21:56:59.770Z,75.48
2019-01-26T21:59:28.544Z,75.70
2019-01-26T22:01:57.119Z,75.70
2019-01-26T22:04:25.748Z,75.93
2019-01-26T22:06:54.403Z,76.02
2019-01-26T22:09:22.999Z,75.61
2019-01-26T22:11:51.646Z,75.38
2019-01-26T22:14:20.556Z,75.69
2019-01-26T22:16:49.145Z,75.77
2019-01-26T22:19:21.773Z,75.79
2019-01-26T22:21:48.543Z,75.94
2019-01-26T22:24:17.153Z,75.64
2019-01-26T22:26:45.888Z,75.65
2019-01-26T22:29:14.473Z,76.01
2019-01-26T22:31:43.168Z,75.91
2019-01-26T22:34:11.780Z,75.86
2019-01-26T22:36:40.432Z,76.00
2019-01-26T22:39:09.466Z,75.71
2019-01-26T22:41:38.187Z,75.59
2019-01-26T22:44:06.868Z,76.01
2019-01-26T22:46:35.483Z,75.82
2019-01-26T22:49:04.195Z,75.90
2019-01-26T22:51:32.812Z,75.88
2019-01-26T22:54:01.499Z,75.22
2019-01-26T22:56:30.154Z,75.79
2019-01-26T22:58:58.748Z,75.65
2019-01-26T23:01:30.453Z,76.15
2019-01-26T23:04:42.475Z,75.38
2019-01-26T23:07:44.408Z,75.22
2019-01-26T23:10:35.112Z,75.44
2019-01-26T23:13:15.657Z,75.30
2019-01-26T23:16:20.562Z,75.30
2019-01-26T23:19:16.208Z,75.36
2019-01-26T23:22:29.278Z,75.10
2019-01-26T23:25:42.657Z,75.07
2019-01-26T23:28:42.789Z,74.33
2019-01-26T23:31:18.852Z,74.59
2019-01-26T23:33:49.555Z,74.41
2019-01-26T23:36:18.488Z,74.12
2019-01-26T23:38:47.132Z,74.75
2019-01-26T23:41:15.796Z,74.90
2019-01-26T23:43:44.451Z,74.69
2019-01-26T23:46:13.115Z,74.79
2019-01-26T23:48:41.879Z,74.63
2019-01-26T23:51:10.862Z,74.47
2019-01-26T23:53:39.452Z,73.58
2019-01-26T23:56:08.045Z,73.43
2019-01-26T23:58:36.714Z,73.60
